National Weather Service United States Department of Commerce

Aviation Forecast Discussion

.AVIATION /01Z THURSDAY THROUGH MONDAY/...
The following discussion is for KPHL, KPNE, KTTN, KABE, KRDG, 
KILG, KMIV, KACY and surrounding areas. 

Tonight...VFR with decreasing cloud cover. Northerly wind less 
than 10 knots. High confidence.

Thursday...VFR with scattered clouds. Northeast to east wind 5 
to 10 knots. High confidence.

Outlook...

Friday...MVFR or lower conditions in rain, which may be heavy 
at times. Gusty easterly winds around 10 to 20 knots with gusts 
up to 35 knots possible, especially at KACY. Moderate confidence
but low confidence on timing of categorical changes.

Saturday...MVFR or lower in rain, with potential for 
improvement to VFR late in the day. Winds become southeasterly 
on Saturday around 10 to 15 knots, becoming southwest around 5 
to 10 knots Saturday afternoon. Moderate confidence. 

Saturday night through Monday....Conditions are expected to 
improve back to VFR by Saturday night and continue through 
Monday. Westerly winds around 5 to 10 knots, becoming northwest 
on Monday. Moderate confidence.

&&

Latest PHL Terminal Aerodrome Forecast (TAF)

FTNA35 KPHL 280526 RRC
KPHL 280523Z 2806/2912 01005KT P6SM SCT250
     FM281200 05007KT P6SM SCT250
     FM281900 09008KT P6SM BKN040
     FM290200 08008KT P6SM BKN015 OVC030
     FM290800 05012KT P6SM OVC010

Latest Area Terminal Aerodrome Forecasts (TAFs)

FTUS80 KPNE 280524 RRF
KPNE 280523Z 2806/2906 VRB02KT P6SM SCT040
     FM281200 04007KT P6SM SCT250
     FM281900 10008KT P6SM BKN040
     FM290200 07008KT P6SM BKN015 OVC030

FTUS80 KTTN 280524 RRG
KTTN 280523Z 2806/2906 04003KT P6SM SKC
     FM281400 VRB03KT P6SM SCT250
     FM281900 12005KT P6SM BKN050
     FM290200 09007KT P6SM BKN015

FTUS80 KILG 280524 RRD
KILG 280523Z 2806/2906 36005KT P6SM SCT250
     FM281200 04005KT P6SM SCT250
     FM281900 12007KT P6SM BKN040
     FM290300 08007KT P6SM OVC025

FTUS80 KRDG 280524 RRG
KRDG 280523Z 2806/2906 00000KT P6SM SKC
     FM281400 VRB03KT P6SM SCT250
     FM282000 12006KT P6SM BKN060
     FM290300 10006KT P6SM BKN020

FTUS80 KABE 280524
KABE 280523Z 2806/2906 32004KT P6SM SKC
     FM281400 VRB03KT P6SM SCT250
     FM282000 10006KT P6SM BKN060
     FM290300 07006KT P6SM BKN020

FTNA35 KACY 280526 RRC
KACY 280523Z 2806/2906 36003KT P6SM SCT040
     FM281200 06006KT P6SM SCT250
     FM281600 06009KT P6SM BKN050
     FM290000 08010KT P6SM OVC025

FTUS51 KMIV 280524
KMIV 280523Z 2806/2906 VRB03KT P6SM SCT040
     FM281200 06006KT P6SM SCT250
     FM281800 10006KT P6SM BKN050
     FM290200 09005KT P6SM OVC025

FTUS80 KEWR 280533 RRA
KEWR 280532Z 2806/2912 02011KT P6SM SCT040
     FM280900 02007KT P6SM SCT035
     FM281600 04008KT P6SM BKN035
      TEMPO 2816/2819 BKN030
     FM281900 08007KT P6SM BKN040
     FM290100 04006KT P6SM FEW025 BKN035

FTUS80 KLGA 280533 RRB
KLGA 280532Z 2806/2912 36010KT P6SM SCT040
     FM281400 03010KT P6SM BKN035
      TEMPO 2814/2818 BKN025
     FM281800 07008KT P6SM BKN040
     FM290100 07008KT P6SM FEW025 BKN035

FTNA35 KJFK 280537 RRD
KJFK 280532Z 2806/2912 36009KT P6SM SCT040
     FM281400 03010KT P6SM BKN035
     TEMPO 2814/2818 BKN025
     FM281800 08009KT P6SM BKN040
     FM290100 05008KT P6SM FEW025 BKN035

FTUS80 KMDT 280309 AAA
KMDT 280306Z 2803/2824 34003KT P6SM SKC
     FM281200 06004KT P6SM SCT040
     FM281500 13005KT P6SM BKN040

FTUS80 KBWI 280524 RRA
KBWI 280521Z 2806/2912 VRB03KT P6SM SCT150
     FM281800 11006KT P6SM BKN120
     FM290400 10008KT P6SM BKN025
     FM290900 08011KT P6SM BKN015
     FM291100 08013G20KT P6SM OVC015

FTUS80 KIAD 280524 RRD
KIAD 280521Z 2806/2912 33004KT P6SM FEW200
     FM281600 13004KT P6SM BKN200
     FM290200 11008KT P6SM BKN035
     FM290400 11009KT P6SM OVC015
     FM290900 09011KT P6SM -SHRA OVC010

FTUS51 KDCA 280524
KDCA 280521Z 2806/2912 34004KT P6SM FEW150
     FM281700 12005KT P6SM BKN200
     FM290000 09006KT P6SM BKN060
     FM290400 10009KT P6SM OVC025
     FM290800 09011G21KT P6SM -SHRA OVC015

Raw METARs for WFO PHI CWA and Surrounding Areas

--TAFs--TimeTTdRHHIWCDirWindGPKVisWxPcpClouds
KRDG0530Z524577calm10CLR
KABE0530Z48438245320610CLR
KTTN0530Z50489448330510CLR
KPNE0530Z524888calm10CLR
KPHL0454Z554774350510FEW045
KILG0530Z544677340310CLR
KMIV0530Z554877330310OVC041
KACY0454Z50478948350510SCT041
--PA--TimeTTdRHHIWCDirWindGPKVisWxPcpClouds
KMPO0530Z43419338290810CLR
K22N0535Z433987calm10CLR
KXLL0515Z504376calm10CLR
KUKT0535Z484587calm10FEW041
KCKZ0515Z504894360310OVC039
KDYL0530Z524682calm10CLR
KPTW0530Z46459329036 BRCLR
KLOM0515Z504790calm10BKN041
KOQN0515Z524577calm10CLR
KMQS0515Z484694calm10CLR
--NJ--TimeTTdRHHIWCDirWindGPKVisWxPcpClouds
KFWN0530Z4643874410510CLR
K12N0454Z494690calm
KMMU0515Z484694calm10CLR
KSMQ0530Z504688350310CLR
KBLM0530Z524682330610FEW043
KNEL0500Z534780calm10BKN043
KMJX0356Z544983330510OVC043
KWRI0501Z524682350510SCT040
KVAY0405Z544882calm10BKN045
KWWD0530Z544882340510BKN041
--DE--TimeTTdRHHIWCDirWindGPKVisWxPcpClouds
K33N0535Z545294calm10OVC039
KDOV0456Z57476930310OVC043
KGED0530Z554877calm10OVC042
--MD--TimeTTdRHHIWCDirWindGPKVisWxPcpClouds
KESN0535Z545396calm10OVC042
KCGE0535Z57528250510BKN042
--OKXTAF--TimeTTdRHHIWCDirWindGPKVisWxPcpClouds
KTEB0530Z523962350710SCT075
KEWR0530Z5539553401410BKN045
KLGA0530Z5541593301210SCT046
KJFK0525Z5443673501210OVC070
KISP0525Z524682330910FEW042
KHPN0525Z463976403201210BKN075
KSWF0445Z4839714470910SCT060
KBDR0530Z50437647320810SCT040
KGON0525Z48438242201410CLR
--LWXTAF--TimeTTdRHHIWCDirWindGPKVisWxPcpClouds
KMTN0515Z5252100calm10CLR
KBWI0530Z524888260310CLR
KDCA0530Z554877350610CLR
KIAD0530Z524682330610CLR
KMRB0530Z464387calm10CLR
KCHO0530Z544882calm10CLR
-Misc-TimeTTdRHHIWCDirWindGPKVisWxPcpClouds
KCDW0530Z54395850310CLR
KLNS0530Z524577300310CLR
KHZL0535Z453776calm10CLR
KAVP0530Z433987150310CLR
KCXY0530Z554363310910CLR
KMDT0530Z524577310610CLR
KUNV0535Z444085calm10CLR
KTHV0530Z464387300310CLR
KSEG0530Z454187340310CLR
KMUI0456Z524270calm10CLR
KAPG0458Z494895calm10CLR
KNHK0452Z61517030810CLR
KOXB0530Z61527230131810OVC030
KSBY0530Z555082320610CLR
KBGM0530Z39379335280510CLR
KNYC0451Z543957340810BKN045
KMSV0530Z434193calm10CLR
KMGJ0530Z433987calm10CLR
KPOU0530Z46397640310CLR

 

KDIX Radar Loop

KDIX Radar

KDOX Radar Loop

KDOX Radar

Visible Satellite

Visible ImageVisible Loop

Infrared Satellite

Infrared ImageInfrared Loop

ZNY Briefing

ZNY Briefing

ZNY SWAP Statement

ZNY SWAP Statement

KPHL Wind Speed Outlook

KPHL Wind Outlook

KPHL Icing Outlook

KPHL Icing  Outlook

KPHL Compression Outlook

KPHL Compression Outlook

ZNY Day 1 SWAP

KPHL Day 1 SWAP

ZNY Day 2 SWAP

KPHL Day 2 SWAP

Turbulence PIREPs

Turbulence PIREPs

Icing PIREPs

Icing PIREPs

Weather/Sky PIREPs

Weather/Sky PIREPs

Current AIRMETs/SIGMETs

Current AIRMETs/SIGMETs

Sierra (Mountains/IFR) AIRMETs

Current 3-hr Forecast 6-hr Forecast

No Plot Available

No Plot Available

No Plot Available

9-hr Forecast 12-hr Forecast

No Plot Available

No Plot Available

Tango (Turbulence/LLWS) AIRMETs

Current 3-hr Forecast 6-hr Forecast

No Plot Available

No Plot Available

No Plot Available

9-hr Forecast 12-hr Forecast

No Plot Available

No Plot Available

Icing AIRMETs

Current 3-hr Forecast 6-hr Forecast

No Plot Available

No Plot Available

No Plot Available

9-hr Forecast 12-hr Forecast

No Plot Available

No Plot Available

Freezing Level AIRMETs

Current 3-hr Forecast 6-hr Forecast

No Plot Available

No Plot Available

No Plot Available

9-hr Forecast 12-hr Forecast

No Plot Available

No Plot Available